createdAt,value
2022-09-12T00:00:25.383Z,22.89
2022-09-12T00:02:54.249Z,22.86
2022-09-12T00:05:22.217Z,22.84
2022-09-12T00:07:50.261Z,22.83
2022-09-12T00:10:19.728Z,22.79
2022-09-12T00:12:47.647Z,22.77
2022-09-12T00:15:15.576Z,22.75
2022-09-12T00:17:43.519Z,22.74
2022-09-12T00:20:11.461Z,22.71
2022-09-12T00:22:39.844Z,22.68
2022-09-12T00:25:09.016Z,22.67
2022-09-12T00:27:38.382Z,22.68
2022-09-12T00:30:07.342Z,22.69
2022-09-12T00:32:35.391Z,22.69
2022-09-12T00:35:03.898Z,22.66
2022-09-12T00:37:31.768Z,22.66
2022-09-12T00:39:59.653Z,22.65
2022-09-12T00:42:27.700Z,22.65
2022-09-12T00:44:57.072Z,22.64
2022-09-12T00:47:26.245Z,22.66
2022-09-12T00:49:57.001Z,22.64
2022-09-12T00:52:27.695Z,22.65
2022-09-12T00:54:58.672Z,22.66
2022-09-12T00:57:29.047Z,22.67
2022-09-12T00:59:59.437Z,22.68
2022-09-12T01:02:27.365Z,22.65
2022-09-12T01:04:55.688Z,22.66
2022-09-12T01:07:24.032Z,22.64
2022-09-12T01:09:51.949Z,22.61
2022-09-12T01:12:19.852Z,22.63
2022-09-12T01:14:47.731Z,22.63
2022-09-12T01:17:17.118Z,22.64
2022-09-12T01:20:13.552Z,22.60
2022-09-12T01:23:11.070Z,22.62
2022-09-12T01:25:40.769Z,22.59
2022-09-12T01:28:19.401Z,22.63
2022-09-12T01:30:49.199Z,22.60
2022-09-12T01:33:30.211Z,22.59
2022-09-12T01:36:06.437Z,22.55
2022-09-12T01:38:36.348Z,22.53
2022-09-12T01:41:10.581Z,22.52
2022-09-12T01:43:42.017Z,22.50
2022-09-12T01:46:13.055Z,22.50
2022-09-12T01:48:43.034Z,22.48
2022-09-12T01:51:13.195Z,22.47
2022-09-12T01:53:42.723Z,22.45
2022-09-12T01:56:11.997Z,22.43
2022-09-12T01:58:41.860Z,22.41
2022-09-12T02:01:12.594Z,22.44
2022-09-12T02:03:44.437Z,22.42
2022-09-12T02:06:16.182Z,22.41
2022-09-12T02:08:45.599Z,22.44
2022-09-12T02:11:13.654Z,22.44
2022-09-12T02:16:26.938Z,22.46
2022-09-12T02:18:57.545Z,22.46
2022-09-12T02:21:25.750Z,22.44
2022-09-12T02:23:55.569Z,22.45
2022-09-12T02:26:26.445Z,22.49
2022-09-12T02:28:54.289Z,22.51
2022-09-12T02:31:24.710Z,22.49
2022-09-12T02:33:57.906Z,22.49
2022-09-12T02:36:32.905Z,22.48
2022-09-12T02:39:01.449Z,22.44
2022-09-12T02:41:29.325Z,22.43
2022-09-12T02:43:57.220Z,22.43
2022-09-12T02:46:28.060Z,22.41
2022-09-12T02:48:56.078Z,22.40
2022-09-12T02:51:24.644Z,22.34
2022-09-12T02:53:52.620Z,22.31
2022-09-12T02:56:23.996Z,22.27
2022-09-12T02:58:51.916Z,22.26
2022-09-12T03:01:27.730Z,22.19
2022-09-12T03:04:07.822Z,22.25
2022-09-12T03:06:37.888Z,22.23
2022-09-12T03:09:10.721Z,22.25
2022-09-12T03:11:57.709Z,22.26
2022-09-12T03:14:36.842Z,22.28
2022-09-12T03:17:09.648Z,22.31
2022-09-12T03:19:42.331Z,22.29
2022-09-12T03:22:12.121Z,22.31
2022-09-12T03:24:42.334Z,22.31
2022-09-12T03:27:11.827Z,22.29
2022-09-12T03:29:39.751Z,22.28
2022-09-12T03:32:09.080Z,22.24
2022-09-12T03:34:37.004Z,22.19
2022-09-12T03:37:05.090Z,22.16
2022-09-12T03:39:33.092Z,22.11
2022-09-12T03:42:01.072Z,22.08
2022-09-12T03:44:29.148Z,22.10
2022-09-12T03:46:57.026Z,22.06
2022-09-12T03:49:26.388Z,22.09
2022-09-12T03:51:54.296Z,22.09
2022-09-12T03:54:22.245Z,22.11
2022-09-12T03:56:50.172Z,22.13
2022-09-12T03:59:18.100Z,22.15
2022-09-12T04:01:45.952Z,22.16
2022-09-12T04:04:13.866Z,22.16
2022-09-12T04:06:44.154Z,22.17
2022-09-12T04:09:12.050Z,22.17
2022-09-12T04:11:39.953Z,22.19
2022-09-12T04:14:07.937Z,22.20
2022-09-12T04:16:35.933Z,22.20
2022-09-12T04:19:03.904Z,22.19
2022-09-12T04:21:32.097Z,22.20
2022-09-12T04:24:01.473Z,22.20
2022-09-12T04:26:29.913Z,22.22
2022-09-12T04:28:58.219Z,22.22
2022-09-12T04:31:26.222Z,22.22
2022-09-12T04:33:57.886Z,22.22
2022-09-12T04:36:25.819Z,22.18
2022-09-12T04:38:53.837Z,22.21
2022-09-12T04:41:24.667Z,22.23
2022-09-12T04:43:53.801Z,22.22
2022-09-12T04:46:21.761Z,22.12
2022-09-12T04:48:53.354Z,22.23
2022-09-12T04:51:27.751Z,22.27
2022-09-12T04:53:56.547Z,22.25
2022-09-12T04:56:26.390Z,22.24
2022-09-12T04:58:54.288Z,22.24
2022-09-12T05:01:23.100Z,22.17
2022-09-12T05:03:51.654Z,22.24
2022-09-12T05:06:20.732Z,22.20
2022-09-12T05:08:48.651Z,22.20
2022-09-12T05:11:21.527Z,22.19
2022-09-12T05:13:53.672Z,22.25
2022-09-12T05:16:21.793Z,22.23
2022-09-12T05:18:50.298Z,22.27
2022-09-12T05:21:20.210Z,22.29
2022-09-12T05:23:48.921Z,22.28
2022-09-12T05:26:17.296Z,22.29
2022-09-12T05:28:45.221Z,22.28
2022-09-12T05:31:15.325Z,22.29
2022-09-12T05:33:43.817Z,22.29
2022-09-12T05:36:13.000Z,22.16
2022-09-12T05:38:41.060Z,22.30
2022-09-12T05:41:17.487Z,22.26
2022-09-12T05:43:47.143Z,22.30
2022-09-12T05:46:17.151Z,22.28
2022-09-12T05:48:45.833Z,22.28
2022-09-12T05:51:17.544Z,22.28
2022-09-12T05:53:45.509Z,22.28
2022-09-12T05:56:14.180Z,22.27
2022-09-12T05:58:43.017Z,22.25
2022-09-12T06:01:12.383Z,22.28
2022-09-12T06:03:43.866Z,22.26
2022-09-12T06:06:13.717Z,22.31
2022-09-12T06:08:42.813Z,22.34
2022-09-12T06:11:11.958Z,22.37
2022-09-12T06:13:40.523Z,22.40
2022-09-12T06:16:09.481Z,22.42
2022-09-12T06:18:37.834Z,22.46
2022-09-12T06:21:07.945Z,22.49
2022-09-12T06:23:36.001Z,22.54
2022-09-12T06:26:04.567Z,22.56
2022-09-12T06:28:32.497Z,22.64
2022-09-12T06:31:04.614Z,22.68
2022-09-12T06:33:34.334Z,22.74
2022-09-12T06:36:12.069Z,22.76
2022-09-12T06:38:40.666Z,22.78
2022-09-12T06:41:09.610Z,22.70
2022-09-12T06:43:37.594Z,22.83
2022-09-12T06:46:05.910Z,22.88
2022-09-12T06:48:34.569Z,22.83
2022-09-12T06:51:06.567Z,22.92
2022-09-12T06:53:36.934Z,22.97
2022-09-12T06:56:06.821Z,22.95
2022-09-12T06:58:35.477Z,23.02
2022-09-12T07:01:04.627Z,23.11
2022-09-12T07:03:33.119Z,23.12
2022-09-12T07:06:04.165Z,23.16
2022-09-12T07:08:32.262Z,23.20
2022-09-12T07:11:02.664Z,23.23
2022-09-12T07:13:30.613Z,23.29
2022-09-12T07:15:59.680Z,23.37
2022-09-12T07:18:27.758Z,23.40
2022-09-12T07:20:55.809Z,23.32
2022-09-12T07:23:23.736Z,23.54
2022-09-12T07:25:54.492Z,23.57
2022-09-12T07:28:25.574Z,23.63
2022-09-12T07:30:54.607Z,23.70
2022-09-12T07:33:22.880Z,23.75
2022-09-12T07:35:55.933Z,23.80
2022-09-12T07:38:26.895Z,23.89
2022-09-12T07:40:54.826Z,23.97
2022-09-12T07:43:26.735Z,24.07
2022-09-12T07:45:59.558Z,24.15
2022-09-12T07:48:28.500Z,24.26
2022-09-12T07:51:00.154Z,24.27
2022-09-12T07:53:28.432Z,24.36
2022-09-12T07:55:57.975Z,24.34
2022-09-12T07:58:28.251Z,24.52
2022-09-12T08:00:56.539Z,24.54
2022-09-12T08:03:24.730Z,24.63
2022-09-12T08:05:52.765Z,24.70
2022-09-12T08:08:20.757Z,24.71
2022-09-12T08:10:48.683Z,24.75
2022-09-12T08:13:16.563Z,24.78
2022-09-12T08:15:45.948Z,24.82
2022-09-12T08:18:14.258Z,24.82
2022-09-12T08:20:42.128Z,24.87
2022-09-12T08:23:10.126Z,24.94
2022-09-12T08:25:40.603Z,24.97
2022-09-12T08:28:08.498Z,24.98
2022-09-12T08:30:36.699Z,25.09
2022-09-12T08:33:06.994Z,25.16
2022-09-12T08:35:35.497Z,25.17
2022-09-12T08:38:03.426Z,25.18
2022-09-12T08:40:31.357Z,25.31
2022-09-12T08:43:03.616Z,25.27
2022-09-12T08:45:47.523Z,25.45
2022-09-12T08:48:16.889Z,25.40
2022-09-12T08:50:49.345Z,25.38
2022-09-12T08:53:19.412Z,25.53
2022-09-12T08:55:47.979Z,25.51
2022-09-12T08:58:19.305Z,25.49
2022-09-12T09:01:28.367Z,25.47
2022-09-12T09:05:24.184Z,25.57
2022-09-12T09:12:26.567Z,25.74
2022-09-12T09:15:41.694Z,25.87
2022-09-12T09:18:42.846Z,26.00
2022-09-12T09:22:15.183Z,26.15
2022-09-12T09:29:59.914Z,26.45
2022-09-12T09:32:54.478Z,26.56
2022-09-12T09:35:26.401Z,26.54
2022-09-12T09:38:02.510Z,26.69
2022-09-12T09:40:37.076Z,26.81
2022-09-12T09:43:08.036Z,26.85
2022-09-12T09:45:35.993Z,26.93
2022-09-12T09:48:14.649Z,26.93
2022-09-12T09:50:42.625Z,27.17
2022-09-12T09:53:11.110Z,27.25
2022-09-12T09:55:41.221Z,27.37
2022-09-12T09:58:09.113Z,27.42
2022-09-12T10:00:37.528Z,27.52
2022-09-12T10:03:26.313Z,27.57
2022-09-12T10:05:55.017Z,27.49
2022-09-12T10:08:24.603Z,27.60
2022-09-12T10:11:01.370Z,27.63
2022-09-12T10:13:34.334Z,27.65
2022-09-12T10:16:03.746Z,27.70
2022-09-12T10:18:37.828Z,27.66
2022-09-12T10:21:19.017Z,27.90
2022-09-12T10:23:47.733Z,27.95
2022-09-12T10:26:16.626Z,28.03
2022-09-12T10:28:46.427Z,28.07
2022-09-12T10:31:18.486Z,28.18
2022-09-12T10:33:52.721Z,28.28
2022-09-12T10:36:20.858Z,28.38
2022-09-12T10:38:52.272Z,28.44
2022-09-12T10:41:20.154Z,28.52
2022-09-12T10:43:48.277Z,28.57
2022-09-12T10:46:24.138Z,28.63
2022-09-12T10:48:54.071Z,28.69
2022-09-12T10:51:29.154Z,28.73
2022-09-12T10:53:57.582Z,28.90
2022-09-12T10:56:28.011Z,29.07
2022-09-12T10:59:11.865Z,29.27
2022-09-12T11:01:44.350Z,29.36
2022-09-12T11:04:38.220Z,29.38
2022-09-12T11:07:25.607Z,29.29
2022-09-12T11:09:55.988Z,29.27
2022-09-12T11:12:27.738Z,29.20
2022-09-12T11:15:05.144Z,29.25
2022-09-12T11:17:41.864Z,29.32
2022-09-12T11:20:26.617Z,29.40
2022-09-12T11:23:07.129Z,29.49
2022-09-12T11:25:36.042Z,29.54
2022-09-12T11:28:28.392Z,29.63
2022-09-12T11:31:12.899Z,29.64
2022-09-12T11:33:43.470Z,29.69
2022-09-12T11:36:19.980Z,29.77
2022-09-12T11:38:55.746Z,29.79
2022-09-12T11:41:26.354Z,29.89
2022-09-12T11:43:56.735Z,30.11
2022-09-12T11:46:26.530Z,30.20
2022-09-12T11:48:56.788Z,30.25
2022-09-12T11:51:28.888Z,30.24
2022-09-12T11:54:04.125Z,30.29
2022-09-12T11:56:32.129Z,30.33
2022-09-12T11:59:02.631Z,30.36
2022-09-12T12:01:38.854Z,30.36
2022-09-12T12:04:12.064Z,30.31
2022-09-12T12:06:48.180Z,30.33
2022-09-12T12:09:16.276Z,30.32
2022-09-12T12:11:45.492Z,30.34
2022-09-12T12:14:15.845Z,30.27
2022-09-12T12:16:43.804Z,30.33
2022-09-12T12:19:34.292Z,30.55
2022-09-12T12:22:09.870Z,30.72
2022-09-12T12:24:54.525Z,30.88
2022-09-12T12:27:26.349Z,31.00
2022-09-12T12:29:54.236Z,31.10
2022-09-12T12:32:28.255Z,31.09
2022-09-12T12:35:03.772Z,30.94
2022-09-12T12:37:54.295Z,30.83
2022-09-12T12:40:26.277Z,30.76
2022-09-12T12:43:31.932Z,30.68
2022-09-12T12:46:04.894Z,30.55
2022-09-12T12:48:58.471Z,30.45
2022-09-12T12:51:49.371Z,30.29
2022-09-12T12:54:51.291Z,30.12
2022-09-12T12:57:21.343Z,29.98
2022-09-12T12:59:51.863Z,29.86
2022-09-12T13:02:22.541Z,29.79
2022-09-12T13:04:50.501Z,29.75
2022-09-12T13:07:26.177Z,29.69
2022-09-12T13:09:55.510Z,29.63
2022-09-12T13:12:24.326Z,29.57
2022-09-12T13:14:54.627Z,29.50
2022-09-12T13:17:28.572Z,29.46
2022-09-12T13:20:26.663Z,29.43
2022-09-12T13:22:53.486Z,29.37
2022-09-12T13:25:30.360Z,29.34
2022-09-12T13:28:02.817Z,29.29
2022-09-12T13:30:32.827Z,29.26
2022-09-12T13:33:15.609Z,29.22
2022-09-12T13:36:01.110Z,29.18
2022-09-12T13:38:32.913Z,29.12
2022-09-12T13:41:16.929Z,29.08
2022-09-12T13:43:46.730Z,28.98
2022-09-12T13:46:16.583Z,28.95
2022-09-12T13:48:44.757Z,28.92
2022-09-12T13:51:22.385Z,28.91
2022-09-12T13:53:50.752Z,28.90
2022-09-12T13:56:20.614Z,28.91
2022-09-12T13:58:56.482Z,28.92
2022-09-12T14:01:24.778Z,29.02
2022-09-12T14:04:10.745Z,29.18
2022-09-12T14:06:45.193Z,29.33
2022-09-12T14:09:14.525Z,29.45
2022-09-12T14:11:44.161Z,29.58
2022-09-12T14:14:31.494Z,29.71
2022-09-12T14:17:00.579Z,29.75
2022-09-12T14:19:29.289Z,29.74
2022-09-12T14:21:57.899Z,29.65
2022-09-12T14:24:26.120Z,29.64
2022-09-12T14:26:56.712Z,29.57
2022-09-12T14:29:25.307Z,29.53
2022-09-12T14:32:03.661Z,29.48
2022-09-12T14:34:31.653Z,29.39
2022-09-12T14:37:03.588Z,29.24
2022-09-12T14:39:32.906Z,29.24
2022-09-12T14:42:07.210Z,29.15
2022-09-12T14:44:35.441Z,29.03
2022-09-12T14:47:13.340Z,29.00
2022-09-12T14:49:41.232Z,29.00
2022-09-12T14:52:10.128Z,28.98
2022-09-12T14:54:39.579Z,28.95
2022-09-12T14:57:31.395Z,28.94
2022-09-12T15:00:17.893Z,28.89
2022-09-12T15:02:48.796Z,28.89
2022-09-12T15:05:27.642Z,28.88
2022-09-12T15:07:57.896Z,28.88
2022-09-12T15:10:28.371Z,28.81
2022-09-12T15:13:14.173Z,28.85
2022-09-12T15:15:42.881Z,28.80
2022-09-12T15:18:10.897Z,28.78
2022-09-12T15:20:39.038Z,28.71
2022-09-12T15:23:08.241Z,28.76
2022-09-12T15:25:36.274Z,28.74
2022-09-12T15:28:14.479Z,28.78
2022-09-12T15:30:42.505Z,28.74
2022-09-12T15:33:10.661Z,28.78
2022-09-12T15:35:39.152Z,28.80
2022-09-12T15:38:07.180Z,28.82
2022-09-12T15:40:35.049Z,28.85
2022-09-12T15:43:03.132Z,28.88
2022-09-12T15:45:33.135Z,28.83
2022-09-12T15:48:01.128Z,28.90
2022-09-12T15:50:29.201Z,28.91
2022-09-12T15:52:57.144Z,28.91
2022-09-12T15:55:26.133Z,28.84
2022-09-12T15:57:54.113Z,28.87
2022-09-12T16:00:22.835Z,28.86
2022-09-12T16:03:01.906Z,28.86
2022-09-12T16:09:07.094Z,28.82
2022-09-12T16:11:35.010Z,28.71
2022-09-12T16:14:03.754Z,28.72
2022-09-12T16:16:31.793Z,28.72
2022-09-12T16:19:01.153Z,28.71
2022-09-12T16:21:29.442Z,28.69
2022-09-12T16:23:57.387Z,28.70
2022-09-12T16:26:25.304Z,28.71
2022-09-12T16:28:56.032Z,28.71
2022-09-12T16:31:24.260Z,28.68
2022-09-12T16:33:52.354Z,28.64
2022-09-12T16:36:37.009Z,28.52
2022-09-12T16:39:06.275Z,28.56
2022-09-12T16:41:34.203Z,28.48
2022-09-12T16:44:02.257Z,28.35
2022-09-12T16:46:30.213Z,28.33
2022-09-12T16:48:58.807Z,28.24
2022-09-12T16:51:28.812Z,28.16
2022-09-12T16:53:59.195Z,28.08
2022-09-12T16:56:27.216Z,28.02
2022-09-12T16:58:55.175Z,27.89
2022-09-12T17:01:23.844Z,27.88
2022-09-12T17:03:54.163Z,27.86
2022-09-12T17:06:22.534Z,27.80
2022-09-12T17:08:52.623Z,27.75
2022-09-12T17:11:50.412Z,27.73
2022-09-12T17:24:05.520Z,27.48
2022-09-12T17:27:05.410Z,27.42
2022-09-12T17:29:52.958Z,27.34
2022-09-12T17:32:57.361Z,27.30
2022-09-12T17:35:45.918Z,27.17
2022-09-12T17:39:02.043Z,27.18
2022-09-12T17:42:20.941Z,27.11
2022-09-12T17:45:28.680Z,27.01
2022-09-12T17:49:12.314Z,26.95
2022-09-12T17:57:03.387Z,26.76
2022-09-12T17:59:51.769Z,26.65
2022-09-12T18:06:17.105Z,26.43
2022-09-12T18:35:57.678Z,26.01
2022-09-12T18:41:56.168Z,25.84
2022-09-12T19:04:52.542Z,25.66
2022-09-12T19:16:49.742Z,25.61
2022-09-12T19:44:10.556Z,25.35
2022-09-12T19:59:14.901Z,25.12
2022-09-12T20:03:39.040Z,25.03
